Terminal Aerodrome Forecast
Issued by NWS Tuscon, AZ

Home | Current Version | Previous Version | Text Only | Print | Product List | Glossary On
Versions: 1 2 3 4 5 6 7 8 9 10 11 12 13
189
FTUS45 KTWC 260520
TAFTUS
TAF
KTUS 260520Z 2606/2706 33007KT P6SM FEW080 SCT120
     FM260800 14007KT P6SM FEW120 BKN200
     FM262000 32010KT P6SM SCT080=

USA.gov is the U.S. government's official web portal to all federal, state and local government web resources and services.